Time;durP1;ratioP1;P1;durP2;ratioP2;P2;SDS_P1;SDS_P2;PMS_P1;PMS_P2;Temp;Humidity;BMP_temperature;BMP_pressure;BME280_temperature;BME280_humidity;BME280_pressure;Samples;Min_cycle;Max_cycle;Signal;HPM_P1;HPM_P2
2023/07/26 00:00:29;;;;;;;1.50;0.90;;;;;24.10;100022.00;;;;2069006;28;20226;-68
2023/07/26 00:01:29;;;;;;;1.20;1.00;;;;;24.10;100023.00;;;;2062027;28;20256;-68
2023/07/26 00:02:30;;;;;;;2.03;1.00;;;;;24.10;100024.00;;;;2071514;28;20218;-68
2023/07/26 00:03:30;;;;;;;1.43;1.00;;;;;24.10;100027.00;;;;2068265;28;20248;-68
2023/07/26 00:04:30;;;;;;;1.00;0.60;;;;;24.10;100013.00;;;;2062697;28;20237;-68
2023/07/26 00:05:31;;;;;;;0.90;0.63;;;;;24.10;100019.00;;;;2069309;28;20244;-68
2023/07/26 00:06:31;;;;;;;1.80;1.10;;;;;24.10;100023.00;;;;2061705;28;20639;-68
2023/07/26 00:07:32;;;;;;;1.03;0.80;;;;;24.10;100031.00;;;;2066001;28;20218;-68
2023/07/26 00:08:32;;;;;;;1.00;0.80;;;;;24.10;100021.00;;;;2070024;28;20214;-68
2023/07/26 00:09:32;;;;;;;2.00;0.70;;;;;24.10;100027.00;;;;2071170;28;20214;-68
2023/07/26 00:10:32;;;;;;;0.90;0.80;;;;;24.10;100022.00;;;;2070507;28;20226;-68
2023/07/26 00:11:33;;;;;;;1.13;0.80;;;;;24.10;99998.00;;;;2060658;28;20257;-68
2023/07/26 00:12:33;;;;;;;1.63;1.03;;;;;24.10;100023.00;;;;2082120;28;20255;-68
2023/07/26 00:13:34;;;;;;;1.27;0.93;;;;;24.00;100025.00;;;;2078139;28;20485;-67
2023/07/26 00:14:34;;;;;;;1.10;0.90;;;;;24.00;100025.00;;;;2070811;28;20245;-67
2023/07/26 00:15:34;;;;;;;1.13;0.80;;;;;24.10;100021.00;;;;2067132;28;20222;-67
2023/07/26 00:16:35;;;;;;;1.40;0.80;;;;;24.10;100029.00;;;;2060505;28;20226;-67
2023/07/26 00:17:35;;;;;;;4.53;0.80;;;;;24.10;100023.00;;;;2070979;28;20301;-67
2023/07/26 00:18:37;;;;;;;1.23;0.90;;;;;24.10;100024.00;;;;2070197;28;20213;-67
2023/07/26 00:19:38;;;;;;;1.35;0.70;;;;;24.10;100027.00;;;;2062009;28;20311;-67
2023/07/26 00:20:38;;;;;;;1.30;1.00;;;;;24.10;100025.00;;;;2068470;28;20230;-67
2023/07/26 00:21:38;;;;;;;1.47;1.10;;;;;24.10;100031.00;;;;2060702;28;20238;-67
2023/07/26 00:22:39;;;;;;;1.00;0.70;;;;;24.10;100026.00;;;;2071044;28;20218;-67
2023/07/26 00:23:39;;;;;;;0.97;0.87;;;;;24.00;100029.00;;;;2069586;28;20287;-67
2023/07/26 00:24:39;;;;;;;1.43;1.03;;;;;24.10;100032.00;;;;2070507;28;20226;-67
2023/07/26 00:25:40;;;;;;;1.27;1.00;;;;;24.10;100031.00;;;;2070489;28;20229;-67
2023/07/26 00:26:40;;;;;;;1.50;0.90;;;;;24.10;100040.00;;;;2062322;28;20305;-67
2023/07/26 00:27:40;;;;;;;1.57;0.90;;;;;24.10;100036.00;;;;2064815;28;20222;-67
2023/07/26 00:28:41;;;;;;;1.00;0.70;;;;;24.00;100040.00;;;;2068661;28;20586;-67
2023/07/26 00:29:41;;;;;;;1.30;0.80;;;;;24.00;100037.00;;;;2071278;28;20749;-67
2023/07/26 00:30:42;;;;;;;2.13;1.20;;;;;24.00;100012.00;;;;2070259;28;20222;-67
2023/07/26 00:31:43;;;;;;;1.23;1.00;;;;;24.10;100035.00;;;;2060327;28;20563;-67
2023/07/26 00:32:43;;;;;;;1.17;0.70;;;;;24.10;100037.00;;;;2074052;28;20639;-67
2023/07/26 00:33:43;;;;;;;1.13;0.90;;;;;24.00;100037.00;;;;2067592;28;20221;-67
2023/07/26 00:34:44;;;;;;;0.97;0.70;;;;;24.00;100036.00;;;;2071007;28;20229;-67
2023/07/26 00:35:44;;;;;;;1.20;0.90;;;;;24.10;100032.00;;;;2070341;28;20233;-67
2023/07/26 00:36:44;;;;;;;1.33;1.07;;;;;24.00;100032.00;;;;2066339;28;20316;-67
2023/07/26 00:37:45;;;;;;;1.30;1.00;;;;;24.00;100025.00;;;;2072968;28;20652;-67
2023/07/26 00:38:45;;;;;;;1.00;0.80;;;;;24.10;100028.00;;;;2076762;28;20309;-67
2023/07/26 00:39:45;;;;;;;1.27;0.90;;;;;24.10;100035.00;;;;2075068;28;20241;-67
2023/07/26 00:40:46;;;;;;;1.50;0.97;;;;;24.10;99998.00;;;;2068694;28;20252;-67
2023/07/26 00:41:46;;;;;;;1.10;0.97;;;;;24.10;100033.00;;;;2060698;28;20275;-67
2023/07/26 00:42:46;;;;;;;1.30;0.90;;;;;24.10;100034.00;;;;2067387;28;20234;-67
2023/07/26 00:43:47;;;;;;;1.60;1.03;;;;;24.00;100035.00;;;;2070992;28;20226;-67
2023/07/26 00:44:47;;;;;;;2.07;0.90;;;;;24.00;100038.00;;;;2068755;28;20210;-67
2023/07/26 00:45:47;;;;;;;1.10;0.80;;;;;24.00;100029.00;;;;2071218;28;20265;-67
2023/07/26 00:46:48;;;;;;;1.20;0.90;;;;;24.00;100037.00;;;;2052409;28;20722;-67
2023/07/26 00:47:48;;;;;;;1.33;0.90;;;;;24.00;100026.00;;;;2060065;28;20294;-67
2023/07/26 00:48:49;;;;;;;1.20;1.00;;;;;24.00;100038.00;;;;2066629;28;20213;-67
2023/07/26 00:49:49;;;;;;;1.20;0.93;;;;;24.10;100041.00;;;;2073787;28;20221;-67
2023/07/26 00:50:49;;;;;;;1.20;0.93;;;;;24.00;100044.00;;;;2075197;28;20280;-67
2023/07/26 00:51:50;;;;;;;1.20;0.97;;;;;24.00;100040.00;;;;2059514;28;20214;-67
2023/07/26 00:52:50;;;;;;;1.30;1.07;;;;;24.00;100034.00;;;;2062539;28;20702;-67
2023/07/26 00:53:50;;;;;;;1.23;1.03;;;;;24.00;100038.00;;;;2062156;28;20758;-67
2023/07/26 00:54:52;;;;;;;1.10;1.00;;;;;24.00;100035.00;;;;2070105;28;20214;-67
2023/07/26 00:55:53;;;;;;;1.13;0.70;;;;;24.00;100036.00;;;;2061439;28;20229;-67
2023/07/26 00:56:54;;;;;;;1.10;0.90;;;;;24.00;99999.00;;;;2052062;28;20609;-67
2023/07/26 00:57:55;;;;;;;1.87;0.83;;;;;24.00;100032.00;;;;2062839;28;20793;-67
2023/07/26 00:58:55;;;;;;;0.93;0.73;;;;;24.00;100039.00;;;;2069536;28;20257;-67
2023/07/26 00:59:56;;;;;;;1.30;1.00;;;;;24.00;100033.00;;;;2071018;28;20445;-68
2023/07/26 01:00:56;;;;;;;1.00;0.90;;;;;24.00;100004.00;;;;2062166;28;20218;-68
2023/07/26 01:01:57;;;;;;;1.43;0.93;;;;;24.00;100036.00;;;;2054130;28;20223;-68
2023/07/26 01:02:57;;;;;;;1.07;0.90;;;;;24.00;100037.00;;;;2070415;28;20229;-68
2023/07/26 01:03:58;;;;;;;1.43;1.00;;;;;24.00;100032.00;;;;2070837;28;20630;-68
2023/07/26 01:04:58;;;;;;;1.30;0.80;;;;;24.00;100036.00;;;;2070755;28;20592;-68
2023/07/26 01:06:15;;;;;;;1.00;0.70;;;;;24.00;100030.00;;;;2069163;28;20564;-68
2023/07/26 01:07:27;;;;;;;1.30;0.85;;;;;24.00;100035.00;;;;2065945;28;20319;-68
2023/07/26 01:08:44;;;;;;;1.23;1.00;;;;;24.00;100013.00;;;;2056638;28;20239;-68
2023/07/26 01:09:55;;;;;;;1.10;0.80;;;;;24.00;100033.00;;;;2063620;28;20222;-68
2023/07/26 01:10:57;;;;;;;1.15;0.75;;;;;24.00;100031.00;;;;2065003;28;20709;-68
2023/07/26 01:12:09;;;;;;;1.45;0.95;;;;;24.00;100035.00;;;;2044509;28;20227;-68
2023/07/26 01:13:14;;;;;;;1.30;1.00;;;;;24.00;100039.00;;;;2063633;28;20215;-68
2023/07/26 01:14:41;;;;;;;2.42;1.00;;;;;24.00;100031.00;;;;2062649;28;20307;-68
2023/07/26 01:15:41;;;;;;;1.20;1.00;;;;;24.00;100037.00;;;;2039073;28;20301;-68
2023/07/26 01:16:42;;;;;;;1.47;0.90;;;;;24.00;100032.00;;;;2058747;28;20218;-68
2023/07/26 01:17:42;;;;;;;1.00;0.83;;;;;24.00;100029.00;;;;2069664;28;20641;-68
2023/07/26 01:18:43;;;;;;;1.20;0.90;;;;;24.00;100029.00;;;;2061521;28;20326;-68
2023/07/26 01:19:43;;;;;;;1.30;0.90;;;;;24.00;100023.00;;;;2062122;28;20701;-68
2023/07/26 01:20:43;;;;;;;1.10;0.83;;;;;24.00;100021.00;;;;2071073;28;20303;-68
2023/07/26 01:21:44;;;;;;;1.50;1.03;;;;;24.00;100032.00;;;;2043534;28;20231;-68
2023/07/26 01:22:44;;;;;;;1.70;0.90;;;;;24.00;100011.00;;;;2060803;28;22285;-68
2023/07/26 01:23:44;;;;;;;1.20;0.80;;;;;24.00;100035.00;;;;2069396;28;20892;-68
2023/07/26 01:24:45;;;;;;;1.83;1.00;;;;;24.00;100033.00;;;;2070994;28;20226;-68
2023/07/26 01:25:45;;;;;;;1.43;0.97;;;;;24.00;100040.00;;;;2068707;28;20237;-68
2023/07/26 01:26:45;;;;;;;1.53;1.40;;;;;24.00;100031.00;;;;2062060;28;20218;-68
2023/07/26 01:27:46;;;;;;;1.50;1.00;;;;;24.00;100033.00;;;;2072612;28;20704;-68
2023/07/26 01:28:46;;;;;;;1.60;1.10;;;;;24.00;100034.00;;;;2071698;28;20264;-68
2023/07/26 01:29:50;;;;;;;1.57;0.90;;;;;24.00;100036.00;;;;2072647;28;20225;-68
2023/07/26 01:30:50;;;;;;;1.23;0.80;;;;;24.00;100027.00;;;;2068403;28;20280;-68
2023/07/26 01:31:51;;;;;;;1.17;0.80;;;;;24.00;100025.00;;;;2053837;28;20643;-68
2023/07/26 01:32:51;;;;;;;1.20;0.90;;;;;24.00;100031.00;;;;2063233;28;20607;-68
2023/07/26 01:33:52;;;;;;;2.50;1.10;;;;;24.00;100020.00;;;;2063807;28;20605;-68
2023/07/26 01:34:53;;;;;;;1.60;0.97;;;;;24.00;100002.00;;;;2055724;28;20245;-68
2023/07/26 01:35:53;;;;;;;1.20;0.90;;;;;24.00;100029.00;;;;2068501;28;20226;-68
2023/07/26 01:36:53;;;;;;;1.13;0.80;;;;;24.00;100021.00;;;;2062298;28;20694;-68
2023/07/26 01:37:54;;;;;;;1.17;0.80;;;;;24.00;100029.00;;;;2064381;28;20223;-68
2023/07/26 01:38:55;;;;;;;1.10;0.87;;;;;24.00;100026.00;;;;2055813;28;20220;-68
2023/07/26 01:39:55;;;;;;;1.07;0.80;;;;;24.00;100016.00;;;;2063329;28;21041;-68
2023/07/26 01:40:55;;;;;;;0.97;0.63;;;;;24.00;100020.00;;;;2063519;28;20214;-68
2023/07/26 01:41:56;;;;;;;1.20;0.80;;;;;24.00;100023.00;;;;2057901;28;20222;-68
2023/07/26 01:42:56;;;;;;;0.80;0.67;;;;;24.00;100017.00;;;;2071383;28;20582;-68
2023/07/26 01:43:56;;;;;;;1.10;0.80;;;;;24.00;100018.00;;;;2071645;28;20717;-68
2023/07/26 01:45:02;;;;;;;1.20;0.90;;;;;24.00;100013.00;;;;2070921;28;20667;-68
2023/07/26 01:46:02;;;;;;;1.30;0.65;;;;;24.00;100020.00;;;;2058595;28;20226;-68
2023/07/26 01:47:02;;;;;;;1.47;1.10;;;;;24.00;100021.00;;;;2071536;28;20211;-68
2023/07/26 01:48:03;;;;;;;1.27;1.10;;;;;24.00;100006.00;;;;2071823;28;20217;-68
2023/07/26 01:49:03;;;;;;;1.03;0.80;;;;;24.00;100019.00;;;;2070675;28;20209;-68
2023/07/26 01:50:05;;;;;;;1.07;0.77;;;;;24.00;100012.00;;;;2071703;28;20208;-68
2023/07/26 01:51:05;;;;;;;1.23;0.95;;;;;24.00;100020.00;;;;2062654;28;20233;-68
2023/07/26 01:52:06;;;;;;;1.37;0.83;;;;;24.00;100014.00;;;;2071673;28;20250;-68
2023/07/26 01:53:06;;;;;;;1.30;0.80;;;;;24.00;100020.00;;;;2070603;28;20217;-68
2023/07/26 01:54:08;;;;;;;1.20;0.67;;;;;24.00;100017.00;;;;2070776;28;20249;-68
2023/07/26 01:55:08;;;;;;;1.42;1.00;;;;;24.00;100015.00;;;;2069502;28;20760;-68
2023/07/26 01:56:08;;;;;;;1.00;0.80;;;;;24.00;100020.00;;;;2062516;28;20306;-68
2023/07/26 01:57:09;;;;;;;1.20;1.00;;;;;24.00;100014.00;;;;2070770;28;20222;-68
2023/07/26 01:58:09;;;;;;;1.10;0.90;;;;;24.00;100003.00;;;;2071317;28;20288;-68
2023/07/26 01:59:09;;;;;;;1.10;0.93;;;;;24.00;100017.00;;;;2070752;28;20249;-68
2023/07/26 02:00:10;;;;;;;1.23;0.90;;;;;24.00;100017.00;;;;2071610;28;20249;-68
2023/07/26 02:01:10;;;;;;;1.40;0.90;;;;;24.00;100014.00;;;;2064037;28;20211;-68
2023/07/26 02:02:11;;;;;;;1.53;0.83;;;;;24.00;100018.00;;;;2072818;28;20358;-68
2023/07/26 02:03:11;;;;;;;0.80;0.73;;;;;24.00;100024.00;;;;2071454;28;20229;-68
2023/07/26 02:04:11;;;;;;;1.30;0.90;;;;;24.00;100017.00;;;;2065988;28;20230;-68
2023/07/26 02:05:12;;;;;;;1.47;0.83;;;;;24.00;100014.00;;;;2064400;28;20222;-68
2023/07/26 02:06:13;;;;;;;1.87;0.80;;;;;24.00;100019.00;;;;2059677;28;20228;-69
2023/07/26 02:07:13;;;;;;;1.20;0.90;;;;;24.00;100015.00;;;;2072392;28;20276;-68
2023/07/26 02:08:13;;;;;;;1.00;0.80;;;;;24.00;100028.00;;;;2077948;28;20699;-68
2023/07/26 02:09:14;;;;;;;1.00;0.80;;;;;24.00;100020.00;;;;2071237;28;20222;-68
2023/07/26 02:10:14;;;;;;;1.57;0.90;;;;;24.00;100019.00;;;;2072422;28;20218;-68
2023/07/26 02:11:14;;;;;;;1.37;1.03;;;;;24.00;100023.00;;;;2055566;28;20227;-68
2023/07/26 02:12:15;;;;;;;1.20;0.87;;;;;24.00;100021.00;;;;2060875;28;20222;-68
2023/07/26 02:13:15;;;;;;;1.20;0.90;;;;;24.00;100029.00;;;;2068953;28;20257;-68
2023/07/26 02:14:16;;;;;;;1.50;1.10;;;;;24.00;100025.00;;;;2072121;28;20221;-68
2023/07/26 02:15:16;;;;;;;1.00;0.70;;;;;24.00;100025.00;;;;2071042;28;20214;-68
2023/07/26 02:16:16;;;;;;;1.23;1.07;;;;;24.00;100028.00;;;;2061474;28;20218;-68
2023/07/26 02:17:17;;;;;;;1.20;0.70;;;;;24.00;100019.00;;;;2066230;28;21179;-68
2023/07/26 02:18:17;;;;;;;1.03;0.90;;;;;24.00;100023.00;;;;2062899;28;20737;-68
2023/07/26 02:19:17;;;;;;;1.20;0.90;;;;;24.00;100018.00;;;;2069641;28;20249;-68
2023/07/26 02:20:18;;;;;;;1.03;0.77;;;;;24.00;99996.00;;;;2068171;28;20276;-68
2023/07/26 02:21:18;;;;;;;1.07;0.80;;;;;24.00;100028.00;;;;2061180;28;20262;-68
2023/07/26 02:22:18;;;;;;;1.20;0.87;;;;;24.00;100026.00;;;;2069765;28;20283;-68
2023/07/26 02:23:19;;;;;;;1.20;0.90;;;;;24.00;100023.00;;;;2070532;28;20222;-68
2023/07/26 02:24:19;;;;;;;0.97;0.67;;;;;23.90;100024.00;;;;2072101;28;20236;-68
2023/07/26 02:25:19;;;;;;;1.67;1.23;;;;;24.00;100029.00;;;;2071054;28;20225;-68
2023/07/26 02:26:20;;;;;;;1.47;1.10;;;;;24.00;100027.00;;;;2060634;28;20637;-68
2023/07/26 02:27:20;;;;;;;1.97;0.87;;;;;23.90;100025.00;;;;2071357;28;20234;-68
2023/07/26 02:28:20;;;;;;;1.17;0.87;;;;;24.00;100026.00;;;;2072069;28;20230;-68
2023/07/26 02:29:21;;;;;;;1.20;0.90;;;;;24.00;100022.00;;;;2072031;28;20218;-68
2023/07/26 02:30:21;;;;;;;1.07;0.90;;;;;24.00;100022.00;;;;2071667;28;20222;-68
2023/07/26 02:31:22;;;;;;;1.13;0.80;;;;;24.00;100022.00;;;;2062026;28;20333;-68
2023/07/26 02:32:22;;;;;;;1.60;0.93;;;;;24.00;100024.00;;;;2071452;28;20218;-68
2023/07/26 02:33:22;;;;;;;1.10;0.80;;;;;24.00;100020.00;;;;2072052;28;20218;-68
2023/07/26 02:34:23;;;;;;;1.40;0.83;;;;;24.00;99996.00;;;;2071048;28;20249;-68
2023/07/26 02:35:23;;;;;;;1.10;0.80;;;;;24.00;100017.00;;;;2071330;28;20222;-68
2023/07/26 02:36:24;;;;;;;1.20;0.87;;;;;24.00;100023.00;;;;2061558;28;20218;-68
2023/07/26 02:37:24;;;;;;;1.10;0.73;;;;;24.00;99997.00;;;;2071329;28;20276;-68
2023/07/26 02:38:25;;;;;;;1.20;0.90;;;;;24.00;100027.00;;;;2071025;28;20457;-68
2023/07/26 02:39:26;;;;;;;1.40;0.87;;;;;24.00;100029.00;;;;2067868;28;20245;-68
2023/07/26 02:40:26;;;;;;;1.90;1.03;;;;;24.00;100030.00;;;;2071939;28;20267;-68
2023/07/26 02:41:27;;;;;;;1.43;0.90;;;;;24.00;100044.00;;;;2059706;28;20226;-68
2023/07/26 02:42:28;;;;;;;1.30;0.93;;;;;23.90;100038.00;;;;2070422;28;20253;-68
2023/07/26 02:43:28;;;;;;;1.30;0.80;;;;;24.00;100045.00;;;;2068045;28;20214;-68
2023/07/26 02:44:29;;;;;;;1.37;1.00;;;;;24.00;100039.00;;;;2061562;28;20318;-68
2023/07/26 02:45:29;;;;;;;1.30;1.00;;;;;24.00;100042.00;;;;2066552;28;20222;-68
2023/07/26 02:46:29;;;;;;;1.00;0.70;;;;;23.90;100037.00;;;;2061236;28;20245;-68
2023/07/26 02:47:32;;;;;;;1.23;0.80;;;;;24.00;100040.00;;;;2071604;28;20218;-68
2023/07/26 02:48:32;;;;;;;1.20;1.00;;;;;24.00;100035.00;;;;2070644;28;20250;-68
2023/07/26 02:49:33;;;;;;;0.90;0.60;;;;;24.00;100033.00;;;;2070822;28;20229;-68
2023/07/26 02:50:33;;;;;;;1.80;1.27;;;;;24.00;100027.00;;;;2063947;28;20289;-68
2023/07/26 02:51:34;;;;;;;1.00;0.80;;;;;24.00;100034.00;;;;2059365;28;20241;-68
2023/07/26 02:52:34;;;;;;;1.10;0.70;;;;;24.00;100028.00;;;;2070932;28;20737;-68
2023/07/26 02:53:34;;;;;;;1.20;0.80;;;;;23.90;100029.00;;;;2070524;28;20642;-68
2023/07/26 02:54:35;;;;;;;1.43;0.90;;;;;24.00;100029.00;;;;2072025;28;20218;-68
2023/07/26 02:55:35;;;;;;;1.30;0.87;;;;;23.90;100030.00;;;;2071441;28;20218;-68
2023/07/26 02:56:35;;;;;;;1.27;1.07;;;;;24.00;100026.00;;;;2060289;28;20209;-68
2023/07/26 02:57:36;;;;;;;0.90;0.80;;;;;24.00;100030.00;;;;2071386;28;20214;-68
2023/07/26 02:58:36;;;;;;;0.93;0.67;;;;;24.00;100039.00;;;;2070695;28;20265;-68
2023/07/26 02:59:36;;;;;;;1.30;0.97;;;;;23.90;100037.00;;;;2071743;28;20222;-68
2023/07/26 03:00:37;;;;;;;1.00;0.70;;;;;24.00;100042.00;;;;2071313;28;20221;-68
2023/07/26 03:01:37;;;;;;;1.10;0.70;;;;;23.90;100037.00;;;;2059696;28;20222;-68
2023/07/26 03:02:37;;;;;;;1.10;0.80;;;;;23.90;100040.00;;;;2064881;28;20273;-68
2023/07/26 03:03:38;;;;;;;1.13;0.93;;;;;24.00;100034.00;;;;2072034;28;20309;-68
2023/07/26 03:04:38;;;;;;;1.10;0.80;;;;;24.00;100034.00;;;;2071160;28;20666;-68
2023/07/26 03:05:38;;;;;;;0.80;0.60;;;;;23.90;100012.00;;;;2070356;28;20268;-68
2023/07/26 03:06:41;;;;;;;1.10;0.70;;;;;23.90;100034.00;;;;2060744;28;20220;-68
2023/07/26 03:07:42;;;;;;;1.15;0.75;;;;;23.90;100038.00;;;;2063739;28;20219;-68
2023/07/26 03:08:42;;;;;;;1.43;1.00;;;;;23.90;100040.00;;;;2066190;28;20228;-68
2023/07/26 03:09:42;;;;;;;1.00;0.80;;;;;23.90;100038.00;;;;2069856;28;20258;-68
2023/07/26 03:10:43;;;;;;;1.37;0.90;;;;;24.00;100045.00;;;;2072223;28;20218;-68
2023/07/26 03:11:43;;;;;;;0.90;0.70;;;;;23.90;100041.00;;;;2062132;28;20221;-68
2023/07/26 03:12:43;;;;;;;1.13;0.80;;;;;24.00;100045.00;;;;2072219;28;20218;-68
2023/07/26 03:13:44;;;;;;;1.10;0.80;;;;;23.90;100044.00;;;;2070256;28;20276;-68
2023/07/26 03:14:44;;;;;;;1.03;0.80;;;;;23.90;100041.00;;;;2070305;28;20215;-68
2023/07/26 03:15:45;;;;;;;1.70;0.97;;;;;23.90;100009.00;;;;2071544;28;20232;-68
2023/07/26 03:16:45;;;;;;;1.23;1.00;;;;;23.90;100032.00;;;;2058919;28;20218;-68
2023/07/26 03:17:45;;;;;;;1.30;1.00;;;;;23.90;100039.00;;;;2069641;28;20214;-68
2023/07/26 03:18:46;;;;;;;1.00;0.87;;;;;23.90;100038.00;;;;2071080;28;20296;-68
2023/07/26 03:19:46;;;;;;;1.00;0.70;;;;;23.90;100041.00;;;;2072139;28;20218;-68
2023/07/26 03:20:46;;;;;;;1.40;0.90;;;;;23.90;100033.00;;;;2071319;28;20227;-68
2023/07/26 03:21:47;;;;;;;1.23;0.90;;;;;23.90;100042.00;;;;2062406;28;20217;-68
2023/07/26 03:22:47;;;;;;;1.40;1.00;;;;;23.90;100041.00;;;;2072013;28;20218;-68
2023/07/26 03:23:47;;;;;;;1.20;0.90;;;;;23.90;100034.00;;;;2071629;28;20253;-68
2023/07/26 03:24:48;;;;;;;1.50;1.00;;;;;23.90;100040.00;;;;2070914;28;20224;-68
2023/07/26 03:25:48;;;;;;;1.47;0.83;;;;;23.90;100046.00;;;;2071158;28;20280;-68
2023/07/26 03:26:48;;;;;;;1.73;1.20;;;;;23.90;100046.00;;;;2073285;28;20759;-68
2023/07/26 03:27:49;;;;;;;1.20;0.80;;;;;23.90;100036.00;;;;2075178;28;20213;-68
2023/07/26 03:28:49;;;;;;;1.20;0.97;;;;;23.90;100046.00;;;;2062105;28;20223;-68
2023/07/26 03:29:49;;;;;;;0.90;0.70;;;;;23.90;100036.00;;;;2062937;28;20211;-68
2023/07/26 03:30:50;;;;;;;1.93;1.17;;;;;23.90;100032.00;;;;2071241;28;20217;-68
2023/07/26 03:31:50;;;;;;;0.90;0.60;;;;;23.90;100039.00;;;;2062445;28;20214;-68
2023/07/26 03:32:50;;;;;;;1.00;0.83;;;;;23.90;100022.00;;;;2071315;28;20225;-68
2023/07/26 03:33:51;;;;;;;1.20;0.87;;;;;23.90;100044.00;;;;2071902;28;20218;-68
2023/07/26 03:34:51;;;;;;;1.00;0.83;;;;;23.90;100033.00;;;;2071354;28;20210;-68
2023/07/26 03:35:52;;;;;;;2.63;0.83;;;;;23.90;100041.00;;;;2071719;28;20238;-68
2023/07/26 03:36:52;;;;;;;1.17;0.70;;;;;23.90;100042.00;;;;2053498;28;20219;-68
2023/07/26 03:37:52;;;;;;;0.90;0.70;;;;;23.90;100048.00;;;;2061117;28;20214;-68
2023/07/26 03:38:52;;;;;;;1.30;1.00;;;;;23.90;100045.00;;;;2071860;28;20222;-68
2023/07/26 03:39:53;;;;;;;1.00;0.77;;;;;23.90;100043.00;;;;2071105;28;20241;-68
2023/07/26 03:40:53;;;;;;;1.07;0.70;;;;;23.90;100049.00;;;;2071932;28;20210;-68
2023/07/26 03:41:53;;;;;;;1.83;1.10;;;;;23.90;100040.00;;;;2059140;28;20218;-68
2023/07/26 03:42:54;;;;;;;1.10;0.90;;;;;23.90;100042.00;;;;2071036;28;20226;-68
2023/07/26 03:43:54;;;;;;;1.40;0.80;;;;;23.90;100044.00;;;;2070014;28;20707;-68
2023/07/26 03:44:54;;;;;;;0.80;0.70;;;;;23.90;100044.00;;;;2071042;28;20584;-68
2023/07/26 03:45:55;;;;;;;1.10;0.90;;;;;23.90;100042.00;;;;2070292;28;22399;-68
2023/07/26 03:46:55;;;;;;;1.30;0.90;;;;;23.90;100045.00;;;;2061366;28;21479;-68
2023/07/26 03:47:55;;;;;;;1.20;0.90;;;;;23.90;100035.00;;;;2068990;28;20261;-68
2023/07/26 03:48:56;;;;;;;0.97;0.80;;;;;23.90;100038.00;;;;2069960;28;20222;-68
2023/07/26 03:49:56;;;;;;;1.53;0.80;;;;;23.90;100044.00;;;;2070552;28;20272;-68
2023/07/26 03:50:56;;;;;;;0.90;0.77;;;;;23.90;100040.00;;;;2071372;28;20224;-68
2023/07/26 03:51:57;;;;;;;1.20;0.70;;;;;23.90;100034.00;;;;2061024;28;20233;-68
2023/07/26 03:52:57;;;;;;;1.30;0.83;;;;;23.90;100042.00;;;;2071262;28;20206;-68
2023/07/26 03:53:57;;;;;;;1.10;1.00;;;;;23.90;100047.00;;;;2067871;28;20206;-68
2023/07/26 03:54:58;;;;;;;1.60;0.83;;;;;23.90;100042.00;;;;2069354;28;20233;-68
2023/07/26 03:55:58;;;;;;;1.00;0.70;;;;;23.90;100052.00;;;;2070593;28;20226;-68
2023/07/26 03:56:58;;;;;;;1.00;0.90;;;;;23.90;100043.00;;;;2056747;28;20222;-68
2023/07/26 03:57:59;;;;;;;0.90;0.70;;;;;23.90;100044.00;;;;2071186;28;20234;-68
2023/07/26 03:58:59;;;;;;;1.07;0.90;;;;;23.90;100054.00;;;;2070719;28;20272;-68
2023/07/26 03:59:59;;;;;;;1.20;1.00;;;;;23.90;100042.00;;;;2070825;28;20273;-68
2023/07/26 04:01:00;;;;;;;1.40;0.73;;;;;23.90;100041.00;;;;2068647;28;20257;-68
2023/07/26 04:02:00;;;;;;;1.00;0.80;;;;;23.90;100048.00;;;;2061788;28;20229;-68
2023/07/26 04:03:00;;;;;;;1.10;0.80;;;;;23.90;100044.00;;;;2071231;28;20222;-68
2023/07/26 04:04:01;;;;;;;1.93;1.43;;;;;23.90;100055.00;;;;2070454;28;20313;-68
2023/07/26 04:05:01;;;;;;;1.17;0.70;;;;;23.90;100058.00;;;;2068187;28;20221;-68
2023/07/26 04:06:01;;;;;;;1.00;0.90;;;;;23.90;100069.00;;;;2067056;28;20292;-68
2023/07/26 04:07:02;;;;;;;1.03;0.77;;;;;23.90;100077.00;;;;2063719;28;20230;-68
2023/07/26 04:08:02;;;;;;;1.50;0.73;;;;;23.90;100081.00;;;;2070045;28;20249;-68
2023/07/26 04:09:03;;;;;;;1.40;1.07;;;;;23.90;100082.00;;;;2071286;28;20507;-68
2023/07/26 04:10:03;;;;;;;1.00;0.87;;;;;23.90;100074.00;;;;2071470;28;20301;-68
2023/07/26 04:11:04;;;;;;;1.20;1.10;;;;;23.90;100078.00;;;;2061183;28;20214;-68
2023/07/26 04:12:05;;;;;;;0.97;0.70;;;;;23.90;100079.00;;;;2071049;28;20218;-68
2023/07/26 04:13:05;;;;;;;1.00;0.90;;;;;23.90;100073.00;;;;2070324;28;20226;-68
2023/07/26 04:14:05;;;;;;;1.23;0.70;;;;;23.90;100076.00;;;;2069335;28;20273;-68
2023/07/26 04:15:06;;;;;;;1.30;0.90;;;;;23.90;100075.00;;;;2069690;28;20221;-68
2023/07/26 04:16:17;;;;;;;1.35;1.15;;;;;23.90;100080.00;;;;2059729;28;20214;-68
2023/07/26 04:17:17;;;;;;;1.15;0.90;;;;;23.90;100079.00;;;;2070787;28;20261;-68
2023/07/26 04:18:18;;;;;;;1.10;1.00;;;;;23.90;100075.00;;;;2070244;28;20214;-68
2023/07/26 04:19:18;;;;;;;1.17;0.90;;;;;23.90;100074.00;;;;2070821;28;20214;-68
2023/07/26 04:20:18;;;;;;;1.00;0.80;;;;;23.90;100076.00;;;;2064191;28;20690;-68
2023/07/26 04:21:19;;;;;;;1.17;0.80;;;;;23.90;100074.00;;;;2060176;28;20725;-68
2023/07/26 04:22:20;;;;;;;2.17;0.90;;;;;23.90;100083.00;;;;2070368;28;20210;-68
2023/07/26 04:23:20;;;;;;;0.97;0.77;;;;;23.90;100073.00;;;;2071041;28;20459;-68
2023/07/26 04:24:20;;;;;;;1.30;0.80;;;;;23.90;100075.00;;;;2071059;28;20242;-68
2023/07/26 04:25:21;;;;;;;1.97;0.80;;;;;23.90;100079.00;;;;2069242;28;20580;-68
2023/07/26 04:26:21;;;;;;;1.00;0.90;;;;;23.90;100079.00;;;;2055745;28;20227;-68
2023/07/26 04:27:21;;;;;;;1.10;0.90;;;;;23.90;100080.00;;;;2068992;28;20596;-68
2023/07/26 04:28:22;;;;;;;1.47;0.97;;;;;23.80;100085.00;;;;2070928;28;20878;-68
2023/07/26 04:29:22;;;;;;;1.07;0.80;;;;;23.90;100082.00;;;;2060470;28;20737;-68
2023/07/26 04:30:22;;;;;;;1.00;0.87;;;;;23.90;100081.00;;;;2071055;28;20202;-68
2023/07/26 04:31:23;;;;;;;1.07;0.80;;;;;23.90;100081.00;;;;2061158;28;20226;-68
2023/07/26 04:32:23;;;;;;;1.00;0.70;;;;;23.90;100085.00;;;;2069548;28;20214;-68
2023/07/26 04:33:23;;;;;;;0.90;0.67;;;;;23.90;100082.00;;;;2070466;28;20243;-68
2023/07/26 04:34:24;;;;;;;1.03;0.80;;;;;23.90;100086.00;;;;2070387;28;20632;-68
2023/07/26 04:35:24;;;;;;;1.00;0.80;;;;;23.90;100081.00;;;;2069578;28;20229;-68
2023/07/26 04:36:24;;;;;;;0.90;0.60;;;;;23.90;100079.00;;;;2060438;28;20222;-68
2023/07/26 04:37:25;;;;;;;1.00;0.80;;;;;23.90;100078.00;;;;2071095;28;20313;-68
2023/07/26 04:38:25;;;;;;;1.30;0.90;;;;;23.90;100080.00;;;;2071141;28;20257;-68
2023/07/26 04:39:25;;;;;;;1.20;0.70;;;;;23.90;100057.00;;;;2069729;28;20214;-68
2023/07/26 04:40:26;;;;;;;1.20;1.00;;;;;23.90;100081.00;;;;2070250;28;20214;-68
2023/07/26 04:41:26;;;;;;;1.30;0.90;;;;;23.90;100077.00;;;;2063905;28;20239;-68
2023/07/26 04:42:26;;;;;;;1.30;0.80;;;;;23.90;100076.00;;;;2076066;28;20209;-68
2023/07/26 04:43:27;;;;;;;0.97;0.87;;;;;23.90;100070.00;;;;2074212;28;20283;-68
2023/07/26 04:44:27;;;;;;;1.00;0.80;;;;;23.90;100078.00;;;;2070945;28;20230;-68
2023/07/26 04:45:27;;;;;;;1.03;0.83;;;;;23.90;100064.00;;;;2070444;28;20280;-68
2023/07/26 04:46:28;;;;;;;2.13;0.87;;;;;23.90;100076.00;;;;2059070;28;20280;-68
2023/07/26 04:47:28;;;;;;;1.83;1.10;;;;;23.90;100082.00;;;;2069928;28;20232;-68
2023/07/26 04:48:29;;;;;;;0.90;0.73;;;;;23.90;100085.00;;;;2070089;28;20241;-68
2023/07/26 04:49:29;;;;;;;1.33;1.17;;;;;23.90;100082.00;;;;2070304;28;20592;-68
2023/07/26 04:50:30;;;;;;;1.10;0.90;;;;;23.90;100082.00;;;;2068778;28;20806;-68
2023/07/26 04:51:30;;;;;;;1.20;0.80;;;;;23.90;100089.00;;;;2059696;28;20724;-68
2023/07/26 04:52:33;;;;;;;1.20;0.93;;;;;23.90;100086.00;;;;2069027;28;20226;-68
2023/07/26 04:53:33;;;;;;;1.17;0.60;;;;;23.90;100083.00;;;;2069978;28;20227;-68
2023/07/26 04:54:33;;;;;;;1.20;0.87;;;;;23.90;100078.00;;;;2070682;28;20327;-68
2023/07/26 04:55:42;;;;;;;1.77;1.07;;;;;23.90;100084.00;;;;2069544;28;20222;-68
2023/07/26 04:56:43;;;;;;;1.42;0.98;;;;;23.90;100079.00;;;;2060201;28;20228;-68
2023/07/26 04:57:43;;;;;;;1.13;0.90;;;;;23.90;100090.00;;;;2070136;28;20214;-68
2023/07/26 04:58:43;;;;;;;1.13;0.90;;;;;23.90;100077.00;;;;2069087;28;20210;-68
2023/07/26 04:59:44;;;;;;;1.50;1.00;;;;;23.90;100080.00;;;;2070874;28;20252;-68
2023/07/26 05:00:44;;;;;;;1.13;1.00;;;;;23.90;100087.00;;;;2066859;28;20636;-68